createdAt,value
2022-09-15T00:00:19.446Z,11.30
2022-09-15T00:03:09.664Z,9.40
2022-09-15T00:05:40.147Z,9.00
2022-09-15T00:08:10.288Z,8.20
2022-09-15T00:11:01.040Z,11.20
2022-09-15T00:13:33.839Z,7.10
2022-09-15T00:16:06.439Z,9.00
2022-09-15T00:18:38.017Z,8.00
2022-09-15T00:21:10.268Z,8.90
2022-09-15T00:23:40.913Z,9.40
2022-09-15T00:26:14.628Z,9.40
2022-09-15T00:28:45.709Z,7.50
2022-09-15T00:31:19.256Z,9.00
2022-09-15T00:33:55.428Z,8.50
2022-09-15T00:36:27.505Z,8.50
2022-09-15T00:38:58.359Z,8.30
2022-09-15T00:41:28.562Z,7.50
2022-09-15T00:44:00.818Z,8.90
2022-09-15T00:46:34.918Z,8.70
2022-09-15T00:49:07.948Z,8.30
2022-09-15T00:51:47.451Z,8.00
2022-09-15T00:54:30.579Z,9.20
2022-09-15T00:57:06.817Z,8.30
2022-09-15T00:59:40.699Z,9.80
2022-09-15T01:02:24.262Z,10.40
2022-09-15T01:04:58.511Z,9.50
2022-09-15T01:07:45.038Z,10.10
2022-09-15T01:10:30.382Z,9.20
2022-09-15T01:13:04.508Z,8.10
2022-09-15T01:15:44.498Z,9.50
2022-09-15T01:21:36.058Z,10.30
2022-09-15T01:24:30.836Z,9.90
2022-09-15T01:27:41.532Z,14.40
2022-09-15T01:30:14.360Z,7.70
2022-09-15T01:33:10.410Z,8.30
2022-09-15T01:35:55.477Z,9.50
2022-09-15T01:38:25.970Z,11.60
2022-09-15T01:41:02.078Z,9.00
2022-09-15T01:43:35.619Z,10.60
2022-09-15T01:46:08.499Z,9.40
2022-09-15T01:48:40.801Z,9.70
2022-09-15T01:51:11.861Z,11.50
2022-09-15T01:53:42.597Z,10.80
2022-09-15T01:56:14.016Z,9.10
2022-09-15T01:58:44.579Z,6.90
2022-09-15T02:01:17.416Z,11.20
2022-09-15T02:04:13.146Z,9.40
2022-09-15T02:06:54.117Z,10.10
2022-09-15T02:09:35.965Z,8.90
2022-09-15T02:12:35.432Z,8.10
2022-09-15T02:15:15.360Z,10.70
2022-09-15T02:20:49.779Z,7.90
2022-09-15T02:23:28.051Z,10.40
2022-09-15T02:26:05.148Z,7.60
2022-09-15T02:28:40.457Z,8.40
2022-09-15T02:31:14.323Z,9.10
2022-09-15T02:33:50.468Z,7.10
2022-09-15T02:36:22.998Z,10.50
2022-09-15T02:38:59.890Z,10.50
2022-09-15T02:41:30.407Z,8.80
2022-09-15T02:44:00.838Z,9.70
2022-09-15T02:46:31.841Z,7.60
2022-09-15T02:49:02.118Z,9.20
2022-09-15T02:51:32.759Z,8.20
2022-09-15T02:54:03.136Z,8.70
2022-09-15T02:56:33.518Z,6.90
2022-09-15T02:59:03.919Z,10.80
2022-09-15T03:01:35.151Z,9.20
2022-09-15T03:04:05.958Z,11.60
2022-09-15T03:06:36.617Z,10.80
2022-09-15T03:09:09.519Z,9.30
2022-09-15T03:11:40.034Z,10.50
2022-09-15T03:14:13.866Z,9.10
2022-09-15T03:16:44.263Z,8.70
2022-09-15T03:19:14.627Z,6.60
2022-09-15T03:21:44.960Z,8.90
2022-09-15T03:24:15.748Z,8.60
2022-09-15T03:26:46.096Z,11.10
2022-09-15T03:29:16.708Z,8.30
2022-09-15T03:31:46.857Z,10.00
2022-09-15T03:34:17.397Z,9.90
2022-09-15T03:36:47.498Z,8.20
2022-09-15T03:39:17.846Z,12.40
2022-09-15T03:41:49.308Z,10.00
2022-09-15T03:44:19.758Z,9.60
2022-09-15T03:46:50.117Z,9.50
2022-09-15T03:49:20.358Z,7.80
2022-09-15T03:51:52.847Z,6.00
2022-09-15T03:54:25.738Z,9.50
2022-09-15T03:56:56.010Z,9.30
2022-09-15T03:59:26.568Z,7.50
2022-09-15T04:01:56.887Z,11.90
2022-09-15T04:04:27.606Z,10.20
2022-09-15T04:06:57.920Z,8.90
2022-09-15T04:09:28.917Z,6.90
2022-09-15T04:11:59.336Z,8.60
2022-09-15T04:14:29.698Z,11.10
2022-09-15T04:17:00.036Z,8.40
2022-09-15T04:19:30.678Z,8.30
2022-09-15T04:22:00.918Z,8.20
2022-09-15T04:24:33.197Z,11.40
2022-09-15T04:27:03.727Z,7.00
2022-09-15T04:29:34.456Z,10.70
2022-09-15T04:32:08.199Z,9.70
2022-09-15T04:34:41.370Z,10.40
2022-09-15T04:37:12.339Z,7.40
2022-09-15T04:39:42.848Z,11.40
2022-09-15T04:42:13.246Z,8.50
2022-09-15T04:44:46.158Z,10.10
2022-09-15T04:47:16.429Z,11.60
2022-09-15T04:49:47.248Z,8.30
2022-09-15T04:52:17.589Z,10.10
2022-09-15T04:54:48.085Z,9.00
2022-09-15T04:57:18.441Z,8.40
2022-09-15T04:59:49.738Z,8.50
2022-09-15T05:02:20.049Z,9.60
2022-09-15T05:04:53.876Z,8.80
2022-09-15T05:07:24.298Z,8.40
2022-09-15T05:09:55.145Z,8.20
2022-09-15T05:12:25.398Z,11.00
2022-09-15T05:14:55.818Z,8.10
2022-09-15T05:17:26.886Z,8.80
2022-09-15T05:19:57.166Z,10.80
2022-09-15T05:22:28.270Z,7.90
2022-09-15T05:24:58.825Z,8.90
2022-09-15T05:27:29.341Z,9.90
2022-09-15T05:30:23.520Z,12.00
2022-09-15T05:32:49.968Z,9.70
2022-09-15T05:35:23.808Z,7.50
2022-09-15T05:37:55.098Z,10.10
2022-09-15T05:40:25.395Z,8.60
2022-09-15T05:42:55.676Z,9.10
2022-09-15T05:45:26.279Z,9.00
2022-09-15T05:48:00.313Z,11.00
2022-09-15T05:50:35.792Z,8.00
2022-09-15T05:53:43.128Z,9.70
2022-09-15T05:56:15.646Z,15.30
2022-09-15T05:58:53.575Z,10.10
2022-09-15T06:01:26.990Z,10.40
2022-09-15T06:03:59.580Z,11.70
2022-09-15T06:06:32.908Z,10.60
2022-09-15T06:09:03.593Z,13.60
2022-09-15T06:11:35.153Z,13.40
2022-09-15T06:14:06.491Z,11.20
2022-09-15T06:16:37.692Z,10.40
2022-09-15T06:19:08.358Z,13.00
2022-09-15T06:21:39.398Z,11.30
2022-09-15T06:24:14.159Z,11.60
2022-09-15T06:26:47.374Z,13.10
2022-09-15T06:29:18.114Z,11.90
2022-09-15T06:31:48.808Z,11.00
2022-09-15T06:34:19.678Z,11.90
2022-09-15T06:36:50.457Z,12.10
2022-09-15T06:39:21.243Z,9.80
2022-09-15T06:42:06.928Z,9.90
2022-09-15T06:44:38.109Z,10.50
2022-09-15T06:47:08.621Z,9.50
2022-09-15T06:49:39.097Z,7.80
2022-09-15T06:52:09.429Z,12.00
2022-09-15T06:55:05.774Z,10.60
2022-09-15T06:57:36.648Z,8.40
2022-09-15T07:00:08.240Z,9.10
2022-09-15T07:02:38.660Z,9.90
2022-09-15T07:05:09.778Z,13.10
2022-09-15T07:07:39.958Z,7.30
2022-09-15T07:10:11.699Z,7.00
2022-09-15T07:12:41.901Z,10.20
2022-09-15T07:15:12.576Z,7.70
2022-09-15T07:17:42.738Z,9.90
2022-09-15T07:20:13.102Z,10.50
2022-09-15T07:22:44.589Z,10.40
2022-09-15T07:25:15.253Z,11.40
2022-09-15T07:27:46.028Z,10.20
2022-09-15T07:30:16.550Z,9.60
2022-09-15T07:32:46.996Z,8.20
2022-09-15T07:35:17.636Z,7.70
2022-09-15T07:37:48.761Z,10.60
2022-09-15T07:40:19.387Z,9.30
2022-09-15T07:42:49.954Z,7.10
2022-09-15T07:45:20.405Z,12.10
2022-09-15T07:47:50.758Z,8.80
2022-09-15T07:50:53.374Z,11.20
2022-09-15T07:53:23.739Z,7.80
2022-09-15T07:55:55.065Z,10.50
2022-09-15T07:58:25.674Z,6.70
2022-09-15T08:00:55.823Z,6.70
2022-09-15T08:03:26.240Z,7.30
2022-09-15T08:06:04.179Z,5.60
2022-09-15T08:08:34.308Z,7.90
2022-09-15T08:11:16.348Z,6.30
2022-09-15T08:13:53.805Z,10.10
2022-09-15T08:21:31.996Z,6.60
2022-09-15T08:24:02.943Z,6.90
2022-09-15T08:26:33.608Z,9.80
2022-09-15T08:29:04.218Z,6.20
2022-09-15T08:31:34.520Z,4.90
2022-09-15T08:34:07.346Z,4.70
2022-09-15T08:36:37.469Z,6.10
2022-09-15T08:39:08.516Z,5.30
2022-09-15T08:41:51.249Z,6.40
2022-09-15T08:44:56.027Z,5.20
2022-09-15T08:47:43.148Z,6.90
2022-09-15T08:51:21.418Z,6.20
2022-09-15T08:57:30.606Z,4.60
2022-09-15T09:00:01.187Z,6.00
2022-09-15T09:02:39.952Z,4.20
2022-09-15T09:09:51.776Z,3.90
2022-09-15T09:17:01.537Z,5.60
2022-09-15T09:31:32.859Z,7.00
2022-09-15T09:34:18.219Z,3.70
2022-09-15T09:36:57.244Z,5.60
2022-09-15T09:39:30.997Z,2.90
2022-09-15T09:42:02.850Z,4.10
2022-09-15T09:44:34.056Z,4.40
2022-09-15T09:47:07.108Z,2.10
2022-09-15T09:53:56.068Z,3.90
2022-09-15T10:01:12.201Z,3.60
2022-09-15T10:03:44.266Z,4.80
2022-09-15T10:06:21.117Z,2.30
2022-09-15T10:09:03.958Z,2.90
2022-09-15T10:11:56.848Z,3.60
2022-09-15T10:14:37.187Z,3.30
2022-09-15T10:17:26.294Z,3.70
2022-09-15T10:20:08.546Z,2.50
2022-09-15T10:22:42.316Z,3.80
2022-09-15T10:25:21.630Z,3.40
2022-09-15T10:28:13.566Z,2.60
2022-09-15T10:31:08.249Z,3.10
2022-09-15T10:33:45.339Z,4.20
2022-09-15T10:36:21.459Z,3.00
2022-09-15T10:39:02.645Z,3.40
2022-09-15T10:41:47.138Z,2.60
2022-09-15T10:45:14.490Z,4.00
2022-09-15T10:48:03.477Z,5.00
2022-09-15T10:55:37.061Z,3.00
2022-09-15T10:58:20.528Z,2.00
2022-09-15T11:01:03.292Z,3.60
2022-09-15T11:03:42.619Z,2.00
2022-09-15T11:06:48.717Z,3.10
2022-09-15T11:09:44.658Z,2.60
2022-09-15T11:12:50.114Z,4.70
2022-09-15T11:15:29.957Z,2.90
2022-09-15T11:20:43.048Z,2.80
2022-09-15T11:23:19.647Z,2.30
2022-09-15T11:30:27.407Z,2.90
2022-09-15T11:33:16.996Z,2.50
2022-09-15T11:35:54.388Z,3.40
2022-09-15T11:38:48.354Z,3.20
2022-09-15T11:44:52.128Z,4.50
2022-09-15T11:47:52.376Z,4.80
2022-09-15T12:06:08.966Z,4.90
2022-09-15T12:12:56.932Z,6.80
2022-09-15T12:15:28.890Z,3.30
2022-09-15T12:23:28.562Z,3.10
2022-09-15T12:26:05.636Z,2.70
2022-09-15T12:37:54.942Z,2.90
2022-09-15T12:40:40.766Z,6.00
2022-09-15T12:43:26.011Z,2.80
2022-09-15T12:46:01.354Z,2.30
2022-09-15T12:48:37.418Z,3.00
2022-09-15T12:51:12.851Z,6.40
2022-09-15T12:53:56.258Z,2.20
2022-09-15T12:56:30.191Z,4.60
2022-09-15T12:59:08.806Z,2.80
2022-09-15T13:01:45.191Z,4.30
2022-09-15T13:08:52.753Z,5.00
2022-09-15T13:11:37.671Z,4.40
2022-09-15T13:18:07.569Z,8.40
2022-09-15T13:20:41.829Z,6.80
2022-09-15T13:23:16.296Z,3.90
2022-09-15T13:25:48.266Z,6.30
2022-09-15T13:28:54.104Z,3.60
2022-09-15T13:35:53.785Z,3.80
2022-09-15T13:44:08.013Z,5.50
2022-09-15T13:46:59.390Z,3.40
2022-09-15T13:49:47.666Z,4.20
2022-09-15T13:52:42.296Z,5.20
2022-09-15T13:55:22.085Z,7.60
2022-09-15T14:01:22.659Z,7.90
2022-09-15T14:04:28.099Z,6.50
2022-09-15T14:07:01.517Z,6.40
2022-09-15T14:14:23.879Z,4.20
2022-09-15T14:17:29.039Z,5.80
2022-09-15T14:20:01.460Z,2.50
2022-09-15T14:22:38.586Z,4.90
2022-09-15T14:25:17.024Z,3.70
2022-09-15T14:27:53.624Z,4.00
2022-09-15T14:30:29.578Z,4.50
2022-09-15T14:33:02.483Z,6.10
2022-09-15T14:35:38.680Z,6.30
2022-09-15T14:38:34.978Z,4.70
2022-09-15T14:45:57.600Z,7.80
2022-09-15T14:48:31.174Z,6.10
2022-09-15T14:51:10.780Z,11.00
2022-09-15T14:53:43.640Z,6.60
2022-09-15T14:56:21.488Z,8.70
2022-09-15T14:59:00.471Z,7.90
2022-09-15T15:01:54.349Z,7.50
2022-09-15T15:04:42.057Z,5.10
2022-09-15T15:07:25.370Z,6.00
2022-09-15T15:10:00.494Z,7.60
2022-09-15T15:12:42.028Z,6.30
2022-09-15T15:15:17.880Z,3.90
2022-09-15T15:17:55.046Z,5.80
2022-09-15T15:20:31.894Z,5.70
2022-09-15T15:23:25.295Z,6.10
2022-09-15T15:27:34.272Z,4.40
2022-09-15T15:30:37.960Z,2.50
2022-09-15T15:33:21.259Z,8.90
2022-09-15T15:36:04.578Z,5.00
2022-09-15T15:38:47.221Z,5.00
2022-09-15T15:41:45.749Z,5.10
2022-09-15T15:44:18.737Z,3.40
2022-09-15T15:46:51.956Z,5.40
2022-09-15T15:49:27.680Z,6.20
2022-09-15T15:52:00.267Z,5.30
2022-09-15T15:54:31.073Z,3.30
2022-09-15T15:57:25.040Z,5.70
2022-09-15T15:59:59.229Z,7.10
2022-09-15T16:02:29.902Z,8.00
2022-09-15T16:05:01.379Z,7.50
2022-09-15T16:07:34.169Z,6.00
2022-09-15T16:10:04.958Z,7.50
2022-09-15T16:12:35.670Z,7.00
2022-09-15T16:15:13.639Z,8.20
2022-09-15T16:17:46.904Z,2.50
2022-09-15T16:20:20.086Z,2.70
2022-09-15T16:22:50.413Z,2.50
2022-09-15T16:25:39.316Z,3.60
2022-09-15T16:28:09.963Z,3.60
2022-09-15T16:30:40.291Z,3.40
2022-09-15T16:33:18.719Z,2.40
2022-09-15T16:35:57.978Z,4.20
2022-09-15T16:38:28.926Z,2.80
2022-09-15T16:40:59.879Z,4.60
2022-09-15T16:43:30.558Z,3.40
2022-09-15T16:46:00.738Z,7.60
2022-09-15T16:48:31.007Z,6.80
2022-09-15T16:51:20.855Z,7.10
2022-09-15T16:53:52.638Z,3.90
2022-09-15T16:56:23.269Z,5.30
2022-09-15T17:03:27.416Z,6.50
2022-09-15T17:06:00.699Z,5.80
2022-09-15T17:08:34.225Z,6.60
2022-09-15T17:11:07.144Z,5.80
2022-09-15T17:13:37.724Z,6.50
2022-09-15T17:16:09.482Z,5.90
2022-09-15T17:18:39.757Z,5.20
2022-09-15T17:21:13.355Z,6.10
2022-09-15T17:23:47.176Z,5.00
2022-09-15T17:26:21.547Z,5.30
2022-09-15T17:28:54.723Z,5.50
2022-09-15T17:31:26.475Z,7.60
2022-09-15T17:33:56.986Z,6.30
2022-09-15T17:36:28.200Z,5.50
2022-09-15T17:38:58.728Z,4.40
2022-09-15T17:41:29.169Z,5.10
2022-09-15T17:44:00.024Z,9.10
2022-09-15T17:46:30.559Z,9.20
2022-09-15T17:49:01.026Z,3.40
2022-09-15T17:51:31.299Z,5.00
2022-09-15T17:54:01.858Z,10.10
2022-09-15T17:56:32.301Z,8.80
2022-09-15T18:03:36.427Z,13.70
2022-09-15T18:06:10.176Z,17.20
2022-09-15T18:08:41.052Z,16.10
2022-09-15T18:11:15.827Z,15.90
2022-09-15T18:13:46.747Z,19.30
2022-09-15T18:16:17.721Z,15.10
2022-09-15T18:19:09.937Z,13.80
2022-09-15T18:22:04.043Z,9.60
2022-09-15T18:24:34.927Z,5.50
2022-09-15T18:27:06.167Z,6.60
2022-09-15T18:29:37.299Z,5.30
2022-09-15T18:32:08.128Z,6.20
2022-09-15T18:34:38.601Z,9.00
2022-09-15T18:37:10.328Z,10.90
2022-09-15T18:40:50.362Z,8.80
2022-09-15T18:43:22.156Z,7.00
2022-09-15T18:45:59.779Z,9.20
2022-09-15T18:48:35.026Z,7.20
2022-09-15T18:51:10.041Z,7.20
2022-09-15T18:53:40.610Z,8.70
2022-09-15T18:56:16.254Z,7.00
2022-09-15T18:58:47.019Z,7.10
2022-09-15T19:01:18.749Z,4.80
2022-09-15T19:04:26.361Z,5.90
2022-09-15T19:07:00.409Z,7.10
2022-09-15T19:09:34.259Z,5.90
2022-09-15T19:12:06.466Z,6.10
2022-09-15T19:14:37.417Z,6.50
2022-09-15T19:17:08.408Z,6.20
2022-09-15T19:19:40.828Z,7.80
2022-09-15T19:22:11.499Z,7.80
2022-09-15T19:24:42.248Z,7.20
2022-09-15T19:27:12.881Z,7.80
2022-09-15T19:29:43.570Z,7.10
2022-09-15T19:32:17.505Z,6.70
2022-09-15T19:34:50.439Z,5.90
2022-09-15T19:37:24.003Z,7.90
2022-09-15T19:39:55.402Z,4.30
2022-09-15T19:42:26.750Z,4.80
2022-09-15T19:44:57.548Z,4.30
2022-09-15T19:47:28.845Z,5.80
2022-09-15T19:50:01.901Z,8.00
2022-09-15T19:52:32.680Z,5.10
2022-09-15T19:55:03.753Z,5.30
2022-09-15T19:57:34.337Z,4.80
2022-09-15T20:00:05.924Z,6.20
2022-09-15T20:02:36.508Z,7.60
2022-09-15T20:05:11.383Z,5.20
2022-09-15T20:07:41.756Z,5.00
2022-09-15T20:10:12.926Z,6.50
2022-09-15T20:12:43.392Z,6.20
2022-09-15T20:15:14.233Z,5.40
2022-09-15T20:17:44.454Z,6.80
2022-09-15T20:20:14.831Z,5.80
2022-09-15T20:22:45.194Z,5.40
2022-09-15T20:25:15.883Z,5.60
2022-09-15T20:27:48.120Z,5.70
2022-09-15T20:30:24.773Z,4.10
2022-09-15T20:35:46.704Z,6.20
2022-09-15T20:38:20.996Z,5.80
2022-09-15T20:40:57.153Z,5.90
2022-09-15T20:43:28.409Z,5.40
2022-09-15T20:45:59.823Z,4.50
2022-09-15T20:48:33.339Z,3.70
2022-09-15T20:51:09.002Z,6.30
2022-09-15T20:53:41.253Z,5.00
2022-09-15T20:56:11.730Z,6.30
2022-09-15T20:58:42.680Z,6.50
2022-09-15T21:01:18.622Z,8.40
2022-09-15T21:03:49.420Z,8.10
2022-09-15T21:06:24.431Z,7.60
2022-09-15T21:08:56.134Z,4.40
2022-09-15T21:11:28.029Z,5.10
2022-09-15T21:13:59.143Z,4.80
2022-09-15T21:16:31.119Z,4.80
2022-09-15T21:19:01.638Z,6.40
2022-09-15T21:21:34.397Z,5.30
2022-09-15T21:24:07.959Z,5.30
2022-09-15T21:27:01.713Z,5.50
2022-09-15T21:29:32.102Z,6.70
2022-09-15T21:32:02.593Z,5.80
2022-09-15T21:34:33.310Z,5.00
2022-09-15T21:37:03.661Z,5.40
2022-09-15T21:39:34.227Z,3.40
2022-09-15T21:42:05.677Z,6.20
2022-09-15T21:44:36.089Z,5.40
2022-09-15T21:47:06.578Z,4.20
2022-09-15T21:49:36.887Z,4.90
2022-09-15T21:52:07.346Z,3.80
2022-09-15T21:54:37.761Z,4.50
2022-09-15T21:57:08.550Z,4.10
2022-09-15T21:59:39.005Z,4.90
2022-09-15T22:02:11.389Z,6.40
2022-09-15T22:04:41.734Z,4.70
2022-09-15T22:07:12.549Z,4.30
2022-09-15T22:09:43.298Z,5.90
2022-09-15T22:12:15.870Z,5.70
2022-09-15T22:14:46.558Z,4.90
2022-09-15T22:17:17.049Z,6.30
2022-09-15T22:19:47.681Z,4.50
2022-09-15T22:22:18.079Z,6.20
2022-09-15T22:24:49.977Z,4.70
2022-09-15T22:27:20.337Z,6.90
2022-09-15T22:29:50.954Z,4.70
2022-09-15T22:32:21.468Z,5.70
2022-09-15T22:34:51.879Z,5.40
2022-09-15T22:37:22.476Z,6.40
2022-09-15T22:39:58.978Z,5.70
2022-09-15T22:42:32.418Z,5.40
2022-09-15T22:45:02.808Z,6.80
2022-09-15T22:47:35.407Z,5.50
2022-09-15T22:50:06.019Z,6.80
2022-09-15T22:52:36.320Z,6.90
2022-09-15T22:55:07.336Z,5.00
2022-09-15T22:57:40.036Z,5.70
2022-09-15T23:00:11.305Z,9.40
2022-09-15T23:02:41.726Z,6.20
2022-09-15T23:05:12.519Z,4.70
2022-09-15T23:07:42.727Z,6.10
2022-09-15T23:10:14.094Z,6.90
2022-09-15T23:12:44.416Z,7.50
2022-09-15T23:15:16.247Z,5.50
2022-09-15T23:17:47.379Z,5.20
2022-09-15T23:20:17.601Z,5.40
2022-09-15T23:22:48.036Z,7.00
2022-09-15T23:25:18.197Z,6.50
2022-09-15T23:27:48.646Z,7.20
2022-09-15T23:30:19.044Z,8.30
2022-09-15T23:32:49.497Z,7.40
2022-09-15T23:35:20.043Z,8.80
2022-09-15T23:37:50.376Z,6.10
2022-09-15T23:40:20.780Z,6.90
2022-09-15T23:42:51.345Z,10.30
2022-09-15T23:45:21.647Z,4.60
2022-09-15T23:47:51.897Z,4.90
2022-09-15T23:50:25.826Z,6.20
2022-09-15T23:52:56.647Z,7.50
2022-09-15T23:55:27.158Z,4.50
2022-09-15T23:57:58.077Z,6.60
